Arcata, CA (95518)

12:20 PM PST on February 26, 2017 (GMT -0800)
1 Harpst Street, Arcata, CA 95521 | | Change Station

Elev 20 ft 40.87 °N, 124.08 °W | Updated 15 seconds ago

Rain
Rain
45.7 °F
Feels Like 46 °F
N
0.4
Wind Variable Wind from South
Gusts 2.5 mph

Today
High -- | Low -- °F
--% Chance of Precip.
Yesterday
High -- | Low -- °F
Precip. -- in
Pressure 29.93 in
Visibility 10.0 miles
Clouds Few 1800 ft
Mostly Cloudy 2500 ft
Overcast 3500 ft
Windchill 46 °F
Dew Point 40 °F
Humidity 82%
Rainfall 0.13 in
Snow Depth Not available.
6:54 AM 6:04 PM
New Moon, 0% visible
SPECI KACV 262005Z AUTO 20012KT 10SM FEW018 BKN025 OVC035 07/06 A2993 RMK AO2 RAE02 P0000 T00720056
Pressure 29.93 in
Visibility 10.0 miles
Clouds Few 1800 ft
Mostly Cloudy 2500 ft
Overcast 3500 ft
Windchill 46 °F
Dew Point 40 °F
Humidity 82%
Rainfall 0.13 in
Snow Depth Not available.
6:54 AM 6:04 PM
New Moon, 0% visible
SPECI KACV 262005Z AUTO 20012KT 10SM FEW018 BKN025 OVC035 07/06 A2993 RMK AO2 RAE02 P0000 T00720056

Get Your Daily Forecast Email!

Thanks for signing up!

Be on the lookout for a verification email in your inbox.

You'll start receiving the daily forecast at 8 AM.

×

10-Day Weather Forecast

Almanac

Astronomy

Feb. 26, 2017 Rise Set
Actual Time
Civil Twilight
Nautical Twilight
Astronomical Twilight
Moon
Length of Visible Light
Length of Day
Tomorrow will be .
, % of the Moon is Illuminated

Today's Extremes

State Highs State Lows

Community

WunderPhotos

Upload Photos

1,962,540 photos uploaded!

WunderBlog® & News

Nearby

Air Quality

  Air Quality AQ Index Pollutant
Not available.

Snow Depth

Station Depth Elevation

Earthquake Activity

City Distance Mag. Time & Date
Minimum magnitude displayed is 2.5.

Coastal Water Temperatures

Place Temperature

Stations

Nearby Weather Stations

Station Location Temp. Windchill Dew Point Humidity Wind Precip. Elev Updated Type
                   

Watches & Warnings

There are currently no watches in effect.